Airfield :
LOGIN :

Register | Disclaimer

   EN    FR    IT 

 










Legend :    VFR   Marginal VFR   IFR   Intensive IFR   Very Intensive IFR
Visi :
Ceiling :
>= 8 km
>= 3000ft
5 to 8 km
1000 to 3000 ft
1500m to 5 km
500 to 1000 ft
800 to 1500m
200 to 500 ft
< 800m
< 200 ft
Symbols :   Thunderstorms  Fog  Heavy snow  Heavy precipitations  Wind > 20 kt
SIGMETs :     Misc.  Thunderstorms  Icing  Turbulence  Mountain Waves  Volcanic Ashes







- Airport Elevation : 112 ft
- IATA code : SVQ


LEZL - Sevilla San Pablo

CURRENT METAR :
  • 212100Z 29009KT 250V330 CAVOK 25/15 Q1016 NOSIG

EXPIRED METARs :
  • 212030Z 28012KT CAVOK 26/15 Q1015 NOSIG
  • 212000Z 27012KT 240V300 CAVOK 26/14 Q1015 NOSIG
  • 211930Z 25013KT 210V290 CAVOK 27/15 Q1015 NOSIG
  • 211900Z 24014KT 210V280 CAVOK 28/14 Q1014 NOSIG
  • 211830Z 23014KT 190V250 CAVOK 29/15 Q1014 NOSIG

TAF TAF LEZL
Valid from the 21 at 21:00 until the 22 at 21:00 UTC


212000Z 2121/2221 23010KT CAVOK TX35/2215Z TN19/2205Z
BECMG 2200/2202 VRB02KT
BECMG 2216/2218 23010KT
No reported NOTAMs for that airfield.
1 SIGMET reported for the Madrid FIR (LECM) :
 
Embedded thunderstorms
LECM SIGMET 7 VALID 212115/212300 LEVA
LECM MADRID FIR/UIR EMBD TS OBS AT 2115Z WI N3910 W00713 - N3855 W00502 - N4259 W00458 - N4259 W00740 - N4143 W00616 - N3910 W00713 TOP FL360 MOV NW 10KT NC=



MET'MAP, your aeronautical weather chart ! - Copyright ORBIFLY December 2007 - Disclaimer

ORBIFLY MET'MAP TEAM :

Programming & Development : Alexandra Zaïnal
Concept & Development : Baudouin d'Aumeries
Co-Development & Prog : Marc-Olivier Méhu
Technical & hardware support : Manuel Goepfert

Contact : metmap@orbifly.com




SOURCES & CREDITS :

   NOAA